X  Κλείσιμο Στοιχεία αεροπορικών μετεωρολογικών δεδομένων METAR     LGEL Elefsis Airport
Θερμοκρασία
72°F Θερμοκρασία
37°F Σημείο δρόσου
29% Υγρασία



Aνεμος
0 MPH
0 KM/H
0 M/S
0 KTS



Ηρεμία
Β
Τρέχουσες συνθήκες

Μερικώς συννεφιασμένος Μερικώς συννεφιασμένος
Πίεση 1014.9 (hPa) - 29.97 (inHg)
Ορατότητα 6 (μίλι) - 9.7 (km)
Aεροδρόμιο
Κωδικός αεροδρομίου LGEL

Τοποθεσία: Elefsis Airport
Απόσταση: 77 (mi)

Metar:
LGEL 271850Z 00000KT 9999 FEW025 22/03 Q1015

Ωρα: 27-05-2024 21:50 EEST